createdAt,value
2023-05-21T00:03:33.004Z,98235.63
2023-05-21T00:06:01.704Z,98233.56
2023-05-21T00:08:28.735Z,98235.41
2023-05-21T00:10:55.721Z,98228.38
2023-05-21T00:13:22.622Z,98223.34
2023-05-21T00:15:49.560Z,98222.53
2023-05-21T00:18:16.745Z,98213.28
2023-05-21T00:20:43.676Z,98212.09
2023-05-21T00:23:10.500Z,98216.97
2023-05-21T00:25:37.595Z,98218.31
2023-05-21T00:28:05.673Z,98217.59
2023-05-21T00:30:32.814Z,98218.59
2023-05-21T00:33:02.754Z,98210.06
2023-05-21T00:35:30.195Z,98216.47
2023-05-21T00:37:57.482Z,98217.13
2023-05-21T00:40:24.530Z,98215.13
2023-05-21T00:42:51.420Z,98210.94
2023-05-21T00:45:18.488Z,98212.09
2023-05-21T00:47:45.978Z,98212.94
2023-05-21T00:50:15.359Z,98210.94
2023-05-21T00:52:45.705Z,98210.75
2023-05-21T00:55:13.031Z,98208.06
2023-05-21T00:57:40.571Z,98208.03
2023-05-21T01:00:09.193Z,98207.38
2023-05-21T01:02:38.145Z,98205.19
2023-05-21T01:05:06.850Z,98204.34
2023-05-21T01:07:39.959Z,98203.69
2023-05-21T01:10:09.902Z,98187.94
2023-05-21T01:12:40.069Z,98190.34
2023-05-21T01:15:07.641Z,98190.06
2023-05-21T01:17:37.291Z,98193.22
2023-05-21T01:20:14.583Z,98187.41
2023-05-21T01:22:51.598Z,98190.41
2023-05-21T01:25:18.393Z,98184.41
2023-05-21T01:27:45.266Z,98187.97
2023-05-21T01:30:13.512Z,98181.16
2023-05-21T01:33:05.486Z,98175.91
2023-05-21T01:39:22.536Z,98168.00
2023-05-21T01:41:52.446Z,98170.53
2023-05-21T01:44:19.663Z,98174.78
2023-05-21T01:46:46.744Z,98186.47
2023-05-21T01:49:14.843Z,98192.75
2023-05-21T01:51:41.841Z,98183.47
2023-05-21T01:54:09.446Z,98194.13
2023-05-21T01:56:37.019Z,98183.66
2023-05-21T01:59:05.810Z,98184.63
2023-05-21T02:01:32.869Z,98179.69
2023-05-21T02:03:59.842Z,98191.97
2023-05-21T02:06:26.869Z,98189.84
2023-05-21T02:08:53.902Z,98186.25
2023-05-21T02:11:20.857Z,98169.47
2023-05-21T02:13:47.800Z,98167.34
2023-05-21T02:16:16.050Z,98174.69
2023-05-21T02:18:46.492Z,98174.03
2023-05-21T02:21:13.594Z,98180.97
2023-05-21T02:23:42.617Z,98177.63
2023-05-21T02:26:09.399Z,98180.00
2023-05-21T02:28:36.479Z,98179.16
2023-05-21T02:31:03.686Z,98171.09
2023-05-21T02:33:31.677Z,98168.28
2023-05-21T02:35:59.011Z,98176.63
2023-05-21T02:38:25.922Z,98174.78
2023-05-21T02:40:53.159Z,98162.38
2023-05-21T02:43:20.373Z,98172.19
2023-05-21T02:45:47.701Z,98170.44
2023-05-21T02:48:14.938Z,98176.63
2023-05-21T02:50:42.762Z,98170.66
2023-05-21T02:53:09.968Z,98173.16
2023-05-21T02:55:37.402Z,98173.25
2023-05-21T02:58:05.051Z,98168.41
2023-05-21T03:00:31.945Z,98161.59
2023-05-21T03:03:02.985Z,98160.44
2023-05-21T03:05:29.991Z,98162.78
2023-05-21T03:07:59.308Z,98168.25
2023-05-21T03:10:26.310Z,98167.47
2023-05-21T03:12:54.856Z,98164.53
2023-05-21T03:15:24.309Z,98166.44
2023-05-21T03:17:54.220Z,98160.16
2023-05-21T03:20:21.235Z,98157.91
2023-05-21T03:22:48.341Z,98154.81
2023-05-21T03:25:15.478Z,98153.38
2023-05-21T03:27:42.419Z,98150.72
2023-05-21T03:30:27.665Z,98160.34
2023-05-21T03:33:20.785Z,98159.78
2023-05-21T03:35:47.723Z,98170.25
2023-05-21T03:38:14.978Z,98162.16
2023-05-21T03:40:41.928Z,98167.28
2023-05-21T03:43:08.932Z,98167.13
2023-05-21T03:45:37.020Z,98159.44
2023-05-21T03:48:24.320Z,98158.88
2023-05-21T03:50:51.554Z,98169.28
2023-05-21T03:53:19.817Z,98168.13
2023-05-21T03:55:54.811Z,98165.38
2023-05-21T03:58:24.173Z,98177.28
2023-05-21T04:00:51.349Z,98169.00
2023-05-21T04:03:18.349Z,98169.72
2023-05-21T04:05:45.442Z,98178.38
2023-05-21T04:08:12.660Z,98179.59
2023-05-21T04:10:39.535Z,98171.56
2023-05-21T04:13:06.560Z,98172.66
2023-05-21T04:15:35.697Z,98173.06
2023-05-21T04:18:02.918Z,98177.16
2023-05-21T04:20:29.871Z,98179.50
2023-05-21T04:22:56.884Z,98177.44
2023-05-21T04:25:23.776Z,98175.81
2023-05-21T04:27:50.883Z,98170.25
2023-05-21T04:30:20.049Z,98185.00
2023-05-21T04:32:48.258Z,98180.31
2023-05-21T04:35:18.155Z,98179.34
2023-05-21T04:37:46.094Z,98166.38
2023-05-21T04:40:18.396Z,98173.78
2023-05-21T04:42:46.750Z,98185.00
2023-05-21T04:45:14.077Z,98181.06
2023-05-21T04:47:46.128Z,98183.59
2023-05-21T04:50:13.106Z,98177.72
2023-05-21T04:52:40.348Z,98183.41
2023-05-21T04:55:08.314Z,98184.59
2023-05-21T04:57:36.104Z,98172.75
2023-05-21T05:00:07.415Z,98186.13
2023-05-21T05:02:40.261Z,98186.91
2023-05-21T05:05:07.288Z,98184.41
2023-05-21T05:07:34.231Z,98187.94
2023-05-21T05:10:01.232Z,98177.81
2023-05-21T05:12:28.352Z,98177.63
2023-05-21T05:14:55.265Z,98180.06
2023-05-21T05:17:24.678Z,98177.81
2023-05-21T05:19:51.557Z,98183.13
2023-05-21T05:22:18.484Z,98184.41
2023-05-21T05:24:46.641Z,98190.06
2023-05-21T05:27:14.213Z,98184.53
2023-05-21T05:29:41.144Z,98184.41
2023-05-21T05:32:08.219Z,98184.00
2023-05-21T05:34:35.042Z,98185.13
2023-05-21T05:37:03.030Z,98188.47
2023-05-21T05:39:31.251Z,98187.69
2023-05-21T05:41:58.214Z,98175.19
2023-05-21T05:44:26.264Z,98175.00
2023-05-21T05:46:54.156Z,98170.84
2023-05-21T05:49:21.128Z,98167.50
2023-05-21T05:51:48.051Z,98167.69
2023-05-21T05:54:15.115Z,98161.72
2023-05-21T05:56:42.079Z,98162.19
2023-05-21T05:59:09.179Z,98159.97
2023-05-21T06:01:38.446Z,98159.47
2023-05-21T06:04:06.263Z,98158.94
2023-05-21T06:06:34.890Z,98174.84
2023-05-21T06:09:01.938Z,98166.19
2023-05-21T06:11:29.201Z,98174.97
2023-05-21T06:13:56.819Z,98171.38
2023-05-21T06:16:23.775Z,98172.25
2023-05-21T06:18:51.336Z,98174.66
2023-05-21T06:21:18.356Z,98169.84
2023-05-21T06:23:45.659Z,98168.16
2023-05-21T06:26:12.468Z,98165.03
2023-05-21T06:28:40.338Z,98173.03
2023-05-21T06:31:12.151Z,98173.06
2023-05-21T06:33:39.378Z,98165.13
2023-05-21T06:36:09.021Z,98160.53
2023-05-21T06:38:36.372Z,98157.16
2023-05-21T06:41:04.247Z,98152.56
2023-05-21T06:43:45.584Z,98155.72
2023-05-21T06:46:31.406Z,98152.44
2023-05-21T06:48:58.335Z,98150.66
2023-05-21T06:51:25.399Z,98154.94
2023-05-21T06:53:53.056Z,98150.88
2023-05-21T06:56:19.904Z,98152.97
2023-05-21T06:58:46.854Z,98163.56
2023-05-21T07:01:13.850Z,98162.22
2023-05-21T07:03:40.893Z,98158.13
2023-05-21T07:06:09.102Z,98165.75
2023-05-21T07:08:36.471Z,98167.31
2023-05-21T07:11:03.757Z,98156.31
2023-05-21T07:13:31.166Z,98158.97
2023-05-21T07:15:59.607Z,98148.47
2023-05-21T07:18:27.754Z,98146.88
2023-05-21T07:20:54.982Z,98157.16
2023-05-21T07:23:22.008Z,98159.28
2023-05-21T07:25:48.833Z,98153.22
2023-05-21T07:28:17.687Z,98155.22
2023-05-21T07:30:45.368Z,98154.81
2023-05-21T07:33:16.483Z,98161.53
2023-05-21T07:35:44.941Z,98155.56
2023-05-21T07:38:11.904Z,98150.41
2023-05-21T07:40:39.247Z,98154.13
2023-05-21T07:43:06.742Z,98159.66
2023-05-21T07:45:35.376Z,98154.88
2023-05-21T07:48:03.026Z,98157.31
2023-05-21T07:50:32.589Z,98158.84
2023-05-21T07:53:00.120Z,98152.03
2023-05-21T07:55:27.275Z,98154.00
2023-05-21T07:57:54.638Z,98148.59
2023-05-21T08:00:26.743Z,98149.78
2023-05-21T08:02:57.323Z,98154.91
2023-05-21T08:05:25.887Z,98156.59
2023-05-21T08:07:53.188Z,98155.44
2023-05-21T08:10:21.242Z,98149.69
2023-05-21T08:12:50.217Z,98149.44
2023-05-21T08:15:17.984Z,98143.34
2023-05-21T08:17:47.099Z,98142.69
2023-05-21T08:20:15.349Z,98155.72
2023-05-21T08:22:44.406Z,98151.50
2023-05-21T08:25:11.767Z,98142.13
2023-05-21T08:27:38.870Z,98145.66
2023-05-21T08:30:07.248Z,98148.91
2023-05-21T08:32:35.226Z,98143.75
2023-05-21T08:35:02.476Z,98142.13
2023-05-21T08:37:52.182Z,98145.81
2023-05-21T08:40:36.663Z,98137.53
2023-05-21T08:43:03.916Z,98136.06
2023-05-21T08:45:59.167Z,98135.97
2023-05-21T08:48:31.785Z,98134.94
2023-05-21T08:51:00.370Z,98141.94
2023-05-21T08:53:33.662Z,98132.91
2023-05-21T08:56:01.888Z,98129.22
2023-05-21T08:59:02.540Z,98128.19
2023-05-21T09:01:34.713Z,98134.03
2023-05-21T09:04:21.155Z,98144.41
2023-05-21T09:06:52.106Z,98133.56
2023-05-21T09:09:34.770Z,98132.84
2023-05-21T09:12:02.506Z,98142.31
2023-05-21T09:14:30.921Z,98132.59
2023-05-21T09:17:20.204Z,98135.59
2023-05-21T09:20:15.976Z,98139.41
2023-05-21T09:22:50.856Z,98138.59
2023-05-21T09:25:22.410Z,98139.19
2023-05-21T09:27:49.871Z,98141.56
2023-05-21T09:30:34.881Z,98142.69
2023-05-21T09:33:03.647Z,98131.75
2023-05-21T09:35:34.514Z,98143.44
2023-05-21T09:38:09.923Z,98143.72
2023-05-21T09:40:48.350Z,98146.53
2023-05-21T09:43:17.366Z,98149.59
2023-05-21T09:45:59.691Z,98137.47
2023-05-21T09:48:42.907Z,98138.53
2023-05-21T09:51:19.003Z,98137.84
2023-05-21T09:54:01.660Z,98145.75
2023-05-21T09:56:30.976Z,98141.44
2023-05-21T09:59:00.610Z,98135.50
2023-05-21T10:01:28.841Z,98134.75
2023-05-21T10:03:58.388Z,98143.00
2023-05-21T10:06:28.638Z,98138.22
2023-05-21T10:08:57.546Z,98135.63
2023-05-21T10:11:31.443Z,98134.47
2023-05-21T10:14:07.254Z,98132.78
2023-05-21T10:16:36.463Z,98136.53
2023-05-21T10:19:05.353Z,98129.91
2023-05-21T10:21:33.501Z,98133.41
2023-05-21T10:24:02.691Z,98128.34
2023-05-21T10:26:30.816Z,98126.69
2023-05-21T10:29:01.322Z,98132.81
2023-05-21T10:31:29.849Z,98109.66
2023-05-21T10:33:56.910Z,98114.44
2023-05-21T10:36:27.478Z,98111.56
2023-05-21T10:38:55.605Z,98105.97
2023-05-21T10:41:24.456Z,98098.78
2023-05-21T10:44:10.346Z,98108.13
2023-05-21T10:46:57.499Z,98099.16
2023-05-21T10:49:59.447Z,98097.28
2023-05-21T10:52:32.596Z,98088.28
2023-05-21T10:55:36.207Z,98089.75
2023-05-21T10:59:05.255Z,98096.53
2023-05-21T11:01:36.485Z,98099.44
2023-05-21T11:04:06.987Z,98098.78
2023-05-21T11:06:33.932Z,98112.47
2023-05-21T11:09:11.959Z,98091.22
2023-05-21T11:11:48.688Z,98096.34
2023-05-21T11:14:40.591Z,98102.06
2023-05-21T11:17:07.405Z,98101.69
2023-05-21T11:19:37.283Z,98101.91
2023-05-21T11:22:28.168Z,98093.22
2023-05-21T11:24:56.353Z,98085.50
2023-05-21T11:27:40.576Z,98083.03
2023-05-21T11:30:09.925Z,98089.34
2023-05-21T11:32:41.242Z,98080.28
2023-05-21T11:35:08.900Z,98084.53
2023-05-21T11:37:37.863Z,98082.75
2023-05-21T11:40:23.892Z,98080.41
2023-05-21T11:42:52.867Z,98084.28
2023-05-21T11:45:21.365Z,98083.16
2023-05-21T11:47:50.117Z,98079.38
2023-05-21T11:50:18.010Z,98079.59
2023-05-21T11:52:45.614Z,98075.41
2023-05-21T11:55:13.406Z,98076.28
2023-05-21T11:57:43.055Z,98066.47
2023-05-21T12:00:17.176Z,98075.59
2023-05-21T12:02:53.460Z,98078.41
2023-05-21T12:05:22.014Z,98078.16
2023-05-21T12:07:50.794Z,98080.19
2023-05-21T12:10:22.164Z,98079.31
2023-05-21T12:12:56.237Z,98077.22
2023-05-21T12:15:26.597Z,98068.66
2023-05-21T12:17:55.727Z,98073.50
2023-05-21T12:20:23.860Z,98069.84
2023-05-21T12:22:51.660Z,98069.66
2023-05-21T12:25:22.364Z,98072.69
2023-05-21T12:27:59.145Z,98070.66
2023-05-21T12:30:34.502Z,98069.59
2023-05-21T12:33:05.404Z,98065.72
2023-05-21T12:35:33.231Z,98057.59
2023-05-21T12:38:03.686Z,98054.41
2023-05-21T12:40:40.225Z,98063.00
2023-05-21T12:43:07.997Z,98053.84
2023-05-21T12:45:36.764Z,98053.63
2023-05-21T12:48:04.395Z,98060.94
2023-05-21T12:50:33.046Z,98049.50
2023-05-21T12:53:00.048Z,98054.19
2023-05-21T12:55:27.006Z,98056.13
2023-05-21T12:58:03.752Z,98062.38
2023-05-21T13:00:30.641Z,98053.00
2023-05-21T13:03:00.114Z,98048.09
2023-05-21T13:05:27.270Z,98040.41
2023-05-21T13:07:54.263Z,98036.94
2023-05-21T13:10:21.900Z,98039.22
2023-05-21T13:12:48.827Z,98037.59
2023-05-21T13:15:15.885Z,98051.53
2023-05-21T13:17:43.028Z,98033.81
2023-05-21T13:20:15.272Z,98040.28
2023-05-21T13:22:46.946Z,98036.16
2023-05-21T13:25:18.960Z,98028.13
2023-05-21T13:27:46.993Z,98031.59
2023-05-21T13:30:14.093Z,98031.41
2023-05-21T13:32:43.427Z,98025.69
2023-05-21T13:35:12.129Z,98021.31
2023-05-21T13:37:40.937Z,98029.59
2023-05-21T13:40:16.261Z,98030.47
2023-05-21T13:42:48.301Z,98024.63
2023-05-21T13:45:21.305Z,98027.44
2023-05-21T13:47:48.612Z,98018.56
2023-05-21T13:50:15.765Z,98015.44
2023-05-21T13:52:43.108Z,98015.44
2023-05-21T13:55:11.347Z,98007.75
2023-05-21T13:57:38.560Z,98019.81
2023-05-21T14:00:14.247Z,98004.53
2023-05-21T14:02:44.242Z,98013.78
2023-05-21T14:05:12.391Z,98003.53
2023-05-21T14:07:40.156Z,98002.75
2023-05-21T14:10:07.911Z,98010.91
2023-05-21T14:12:34.825Z,98004.78
2023-05-21T14:15:02.013Z,98009.47
2023-05-21T14:17:29.138Z,98009.84
2023-05-21T14:19:56.053Z,98010.06
2023-05-21T14:22:23.132Z,98007.13
2023-05-21T14:24:50.194Z,98016.66
2023-05-21T14:27:17.388Z,98018.38
2023-05-21T14:29:44.292Z,98010.41
2023-05-21T14:32:11.188Z,98011.41
2023-05-21T14:34:39.270Z,98000.94
2023-05-21T14:37:06.375Z,98011.81
2023-05-21T14:39:33.129Z,98008.38
2023-05-21T14:41:59.995Z,98009.56
2023-05-21T14:44:26.973Z,98006.50
2023-05-21T14:46:54.577Z,98007.13
2023-05-21T14:49:21.747Z,98000.69
2023-05-21T14:51:49.054Z,98001.75
2023-05-21T14:54:15.830Z,97994.91
2023-05-21T14:56:42.700Z,98000.66
2023-05-21T14:59:11.406Z,97992.50
2023-05-21T15:01:39.026Z,98000.81
2023-05-21T15:04:07.558Z,98006.25
2023-05-21T15:06:34.817Z,98010.06
2023-05-21T15:09:02.014Z,98009.88
2023-05-21T15:11:28.904Z,98009.47
2023-05-21T15:13:55.811Z,97997.91
2023-05-21T15:16:22.764Z,97999.72
2023-05-21T15:18:50.290Z,97999.81
2023-05-21T15:21:17.296Z,97998.47
2023-05-21T15:23:44.328Z,97992.25
2023-05-21T15:26:14.057Z,98000.28
2023-05-21T15:28:41.019Z,97997.81
2023-05-21T15:31:08.027Z,97987.91
2023-05-21T15:33:34.845Z,97991.78
2023-05-21T15:36:04.069Z,97983.97
2023-05-21T15:38:31.269Z,97985.06
2023-05-21T15:40:58.263Z,97983.09
2023-05-21T15:43:25.442Z,97979.41
2023-05-21T15:45:52.435Z,97975.75
2023-05-21T15:48:22.574Z,97983.78
2023-05-21T15:50:50.087Z,97983.88
2023-05-21T15:53:17.157Z,97971.78
2023-05-21T15:55:44.870Z,97965.41
2023-05-21T15:58:12.012Z,97963.28
2023-05-21T16:00:39.281Z,97964.69
2023-05-21T16:03:06.296Z,97964.88
2023-05-21T16:05:33.069Z,97964.31
2023-05-21T16:08:00.508Z,97958.22
2023-05-21T16:10:27.343Z,97972.03
2023-05-21T16:12:54.129Z,97967.69
2023-05-21T16:15:48.319Z,97970.03
2023-05-21T16:18:16.203Z,97971.50
2023-05-21T16:20:43.704Z,97969.78
2023-05-21T16:23:12.300Z,97977.31
2023-05-21T16:25:39.581Z,97968.06
2023-05-21T16:28:06.693Z,97966.41
2023-05-21T16:30:33.480Z,97960.75
2023-05-21T16:33:00.771Z,97970.25
2023-05-21T16:35:27.621Z,97975.38
2023-05-21T16:37:55.821Z,97964.25
2023-05-21T16:40:22.721Z,97968.63
2023-05-21T16:42:49.748Z,97966.72
2023-05-21T16:45:20.751Z,97971.38
2023-05-21T16:47:48.845Z,97962.81
2023-05-21T16:50:16.444Z,97976.16
2023-05-21T16:52:43.404Z,97975.94
2023-05-21T16:55:11.414Z,97973.97
2023-05-21T16:57:38.630Z,97974.41
2023-05-21T17:00:07.728Z,97967.13
2023-05-21T17:02:35.257Z,97978.03
2023-05-21T17:05:02.157Z,97970.28
2023-05-21T17:07:29.240Z,97963.56
2023-05-21T17:09:56.098Z,97962.16
2023-05-21T17:12:23.749Z,97968.31
2023-05-21T17:14:52.109Z,97973.34
2023-05-21T17:17:19.181Z,97974.19
2023-05-21T17:19:46.222Z,97976.63
2023-05-21T17:22:14.926Z,97982.06
2023-05-21T17:24:41.914Z,97983.13
2023-05-21T17:27:08.954Z,97984.47
2023-05-21T17:29:35.852Z,97984.81
2023-05-21T17:32:03.256Z,97990.00
2023-05-21T17:34:33.137Z,97987.06
2023-05-21T17:37:03.138Z,97976.56
2023-05-21T17:39:30.913Z,97986.44
2023-05-21T17:41:57.987Z,97978.66
2023-05-21T17:44:24.966Z,97989.78
2023-05-21T17:46:52.404Z,97993.44
2023-05-21T17:49:19.459Z,97996.13
2023-05-21T17:51:48.064Z,97999.31
2023-05-21T17:54:15.960Z,97994.75
2023-05-21T17:56:44.204Z,97992.44
2023-05-21T17:59:14.561Z,97995.38
2023-05-21T18:01:41.534Z,97995.59
2023-05-21T18:04:12.841Z,98000.22
2023-05-21T18:06:40.439Z,97993.97
2023-05-21T18:09:08.270Z,97994.34
2023-05-21T18:11:35.223Z,97990.34
2023-05-21T18:14:03.983Z,97994.19
2023-05-21T18:16:31.817Z,97994.44
2023-05-21T18:18:58.988Z,97996.66
2023-05-21T18:21:26.344Z,97985.06
2023-05-21T18:23:53.420Z,97994.44
2023-05-21T18:26:20.985Z,97990.28
2023-05-21T18:28:49.050Z,97994.22
2023-05-21T18:31:17.282Z,97992.34
2023-05-21T18:33:44.803Z,97991.41
2023-05-21T18:36:11.771Z,97992.19
2023-05-21T18:38:39.248Z,97994.63
2023-05-21T18:41:07.621Z,97995.25
2023-05-21T18:43:34.469Z,97996.88
2023-05-21T18:46:01.328Z,97992.25
2023-05-21T18:48:30.008Z,98002.97
2023-05-21T18:50:57.036Z,98001.88
2023-05-21T18:53:23.947Z,98009.03
2023-05-21T18:55:50.908Z,98002.31
2023-05-21T18:58:17.978Z,98007.13
2023-05-21T19:00:44.916Z,98002.94
2023-05-21T19:03:12.750Z,98007.59
2023-05-21T19:05:39.593Z,98012.72
2023-05-21T19:08:06.531Z,98012.28
2023-05-21T19:10:33.445Z,98011.50
2023-05-21T19:13:00.523Z,98017.50
2023-05-21T19:15:27.558Z,98017.69
2023-05-21T19:17:54.379Z,98029.25
2023-05-21T19:20:24.730Z,98029.88
2023-05-21T19:22:52.305Z,98022.56
2023-05-21T19:25:19.299Z,98026.94
2023-05-21T19:27:46.292Z,98024.25
2023-05-21T19:30:13.622Z,98023.03
2023-05-21T19:32:40.497Z,98018.25
2023-05-21T19:35:08.261Z,98023.84
2023-05-21T19:37:35.195Z,98014.50
2023-05-21T19:40:02.017Z,98021.16
2023-05-21T19:42:29.073Z,98020.94
2023-05-21T19:44:55.921Z,98029.50
2023-05-21T19:47:22.764Z,98020.25
2023-05-21T19:49:49.569Z,98024.25
2023-05-21T19:52:16.549Z,98020.28
2023-05-21T19:54:43.602Z,98018.63
2023-05-21T19:57:12.466Z,98015.91
2023-05-21T19:59:39.558Z,98023.78
2023-05-21T20:02:07.004Z,98019.03
2023-05-21T20:04:33.910Z,98019.44
2023-05-21T20:07:02.928Z,98025.91
2023-05-21T20:09:31.480Z,98017.31
2023-05-21T20:11:58.678Z,98023.59
2023-05-21T20:14:25.624Z,98021.91
2023-05-21T20:16:53.624Z,98017.31
2023-05-21T20:19:22.798Z,98021.50
2023-05-21T20:21:49.865Z,98022.97
2023-05-21T20:24:17.056Z,98018.75
2023-05-21T20:26:45.123Z,98017.53
2023-05-21T20:29:12.196Z,98017.16
2023-05-21T20:31:39.160Z,98023.84
2023-05-21T20:34:07.909Z,98024.47
2023-05-21T20:36:35.821Z,98017.53
2023-05-21T20:39:03.077Z,98013.41
2023-05-21T20:41:36.160Z,98021.31
2023-05-21T20:44:05.172Z,98031.84
2023-05-21T20:46:38.537Z,98020.56
2023-05-21T20:49:06.140Z,98026.84
2023-05-21T20:51:33.599Z,98024.78
2023-05-21T20:54:00.444Z,98022.31
2023-05-21T20:56:40.720Z,98020.06
2023-05-21T20:59:09.953Z,98023.94
2023-05-21T21:01:38.599Z,98019.13
2023-05-21T21:04:05.799Z,98020.75
2023-05-21T21:06:34.030Z,98026.59
2023-05-21T21:09:00.883Z,98031.34
2023-05-21T21:11:27.758Z,98029.69
2023-05-21T21:13:54.639Z,98038.88
2023-05-21T21:16:21.630Z,98042.09
2023-05-21T21:18:48.659Z,98036.47
2023-05-21T21:21:15.596Z,98038.94
2023-05-21T21:23:42.553Z,98042.63
2023-05-21T21:26:09.334Z,98044.75
2023-05-21T21:28:36.243Z,98040.78
2023-05-21T21:31:03.085Z,98040.19
2023-05-21T21:33:29.935Z,98034.13
2023-05-21T21:35:56.730Z,98036.94
2023-05-21T21:38:24.066Z,98030.84
2023-05-21T21:40:50.974Z,98036.78
2023-05-21T21:43:17.800Z,98027.44
2023-05-21T21:45:44.966Z,98033.44
2023-05-21T21:48:11.779Z,98038.72
2023-05-21T21:50:38.801Z,98031.25
2023-05-21T21:53:06.045Z,98031.59
2023-05-21T21:55:33.370Z,98036.72
2023-05-21T21:58:00.418Z,98032.63
2023-05-21T22:00:27.193Z,98039.22
2023-05-21T22:02:54.159Z,98044.63
2023-05-21T22:05:21.295Z,98038.59
2023-05-21T22:07:48.200Z,98042.25
2023-05-21T22:10:16.383Z,98033.84
2023-05-21T22:12:44.424Z,98038.97
2023-05-21T22:15:18.049Z,98035.88
2023-05-21T22:17:48.361Z,98037.09
2023-05-21T22:20:17.550Z,98043.31
2023-05-21T22:22:46.170Z,98042.09
2023-05-21T22:25:13.372Z,98032.41
2023-05-21T22:27:40.563Z,98041.53
2023-05-21T22:30:08.046Z,98031.97
2023-05-21T22:32:35.089Z,98039.09
2023-05-21T22:35:02.594Z,98034.72
2023-05-21T22:37:29.688Z,98031.44
2023-05-21T22:39:57.552Z,98033.00
2023-05-21T22:42:24.628Z,98032.53
2023-05-21T22:44:52.212Z,98035.31
2023-05-21T22:47:23.086Z,98038.44
2023-05-21T22:49:53.486Z,98019.63
2023-05-21T22:52:24.029Z,98028.63
2023-05-21T22:54:54.751Z,98027.06
2023-05-21T22:57:21.818Z,98025.53
2023-05-21T22:59:48.716Z,98025.34
2023-05-21T23:02:16.535Z,98021.94
2023-05-21T23:04:44.573Z,98020.91
2023-05-21T23:07:12.561Z,98018.03
2023-05-21T23:09:41.364Z,98028.94
2023-05-21T23:12:10.258Z,98023.50
2023-05-21T23:14:37.012Z,98028.09
2023-05-21T23:17:04.527Z,98015.94
2023-05-21T23:19:32.952Z,98016.06
2023-05-21T23:22:00.620Z,98017.31
2023-05-21T23:24:29.502Z,98010.72
2023-05-21T23:27:01.846Z,98006.41
2023-05-21T23:29:30.063Z,98009.19
2023-05-21T23:31:57.247Z,98011.69
2023-05-21T23:34:24.871Z,98006.72
2023-05-21T23:36:51.904Z,98008.28
2023-05-21T23:39:18.814Z,98006.22
2023-05-21T23:41:45.729Z,98007.72
2023-05-21T23:44:12.954Z,98005.03
2023-05-21T23:46:39.784Z,98001.91
2023-05-21T23:49:06.591Z,97999.31
2023-05-21T23:51:33.493Z,98003.28
2023-05-21T23:54:01.000Z,98000.53
2023-05-21T23:56:27.816Z,98001.44
2023-05-21T23:58:54.550Z,98004.31
